createdAt,value
2018-04-17T00:00:48.289Z,23.90
2018-04-17T00:03:15.782Z,15.77
2018-04-17T00:05:43.285Z,18.37
2018-04-17T00:08:10.770Z,22.63
2018-04-17T00:10:39.903Z,19.60
2018-04-17T00:13:08.055Z,17.30
2018-04-17T00:15:36.671Z,22.83
2018-04-17T00:18:05.519Z,26.80
2018-04-17T00:20:33.014Z,20.53
2018-04-17T00:23:00.494Z,20.93
2018-04-17T00:25:28.014Z,21.67
2018-04-17T00:27:56.658Z,26.63
2018-04-17T00:30:27.121Z,19.40
2018-04-17T00:32:55.821Z,17.37
2018-04-17T00:35:24.466Z,17.40
2018-04-17T00:37:51.980Z,20.90
2018-04-17T00:40:19.488Z,19.27
2018-04-17T00:42:46.973Z,22.77
2018-04-17T00:45:18.864Z,19.60
2018-04-17T00:47:50.881Z,19.87
2018-04-17T00:50:22.749Z,18.37
2018-04-17T00:52:54.619Z,24.20
2018-04-17T00:55:22.107Z,24.97
2018-04-17T00:57:49.565Z,21.90
2018-04-17T01:00:17.077Z,20.40
2018-04-17T01:02:44.581Z,15.27
2018-04-17T01:05:12.063Z,17.00
2018-04-17T01:07:51.996Z,25.93
2018-04-17T01:10:20.236Z,21.23
2018-04-17T01:12:47.726Z,25.60
2018-04-17T01:15:15.239Z,17.13
2018-04-17T01:17:42.738Z,21.43
2018-04-17T01:20:11.190Z,15.27
2018-04-17T01:22:39.794Z,18.80
2018-04-17T01:25:08.614Z,21.97
2018-04-17T01:30:07.982Z,12.20
2018-04-17T01:32:35.474Z,21.60
2018-04-17T01:35:02.946Z,19.53
2018-04-17T01:37:36.465Z,24.07
2018-04-17T01:40:06.818Z,20.33
2018-04-17T01:42:38.459Z,23.30
2018-04-17T01:45:10.263Z,20.30
2018-04-17T01:47:37.749Z,22.13
2018-04-17T01:50:05.250Z,17.40
2018-04-17T01:52:32.758Z,28.17
2018-04-17T01:55:00.487Z,21.67
2018-04-17T02:00:03.475Z,19.87
2018-04-17T02:02:36.298Z,19.17
2018-04-17T02:05:03.818Z,22.17
2018-04-17T02:07:31.284Z,17.93
2018-04-17T02:09:58.778Z,22.00
2018-04-17T02:12:27.590Z,25.37
2018-04-17T02:15:00.523Z,18.73
2018-04-17T02:17:30.725Z,21.03
2018-04-17T02:20:02.850Z,19.07
2018-04-17T02:22:30.350Z,19.33
2018-04-17T02:24:57.846Z,18.37
2018-04-17T02:27:25.367Z,28.37
2018-04-17T02:29:54.174Z,23.03
2018-04-17T02:35:34.156Z,21.90
2018-04-17T02:38:01.662Z,19.83
2018-04-17T02:40:29.223Z,17.00
2018-04-17T02:42:56.743Z,18.03
2018-04-17T02:45:24.280Z,19.57
2018-04-17T02:47:55.551Z,28.27
2018-04-17T02:50:39.094Z,24.30
2018-04-17T02:53:18.012Z,15.97
2018-04-17T02:55:47.814Z,14.10
2018-04-17T02:58:15.352Z,24.47
2018-04-17T03:00:42.866Z,14.93
2018-04-17T03:03:10.459Z,12.93
2018-04-17T03:05:51.203Z,19.17
2018-04-17T03:14:03.225Z,19.00
2018-04-17T03:16:30.760Z,19.90
2018-04-17T03:18:58.376Z,18.23
2018-04-17T03:21:30.485Z,19.70
2018-04-17T03:30:04.947Z,19.40
2018-04-17T03:32:33.335Z,15.47
2018-04-17T03:35:00.902Z,16.17
2018-04-17T03:37:28.535Z,16.17
2018-04-17T03:40:18.380Z,18.13
2018-04-17T03:45:35.070Z,18.20
2018-04-17T03:48:02.608Z,9.57
2018-04-17T03:50:30.110Z,16.97
2018-04-17T03:52:57.590Z,22.47
2018-04-17T03:55:25.696Z,18.03
2018-04-17T04:04:25.538Z,17.77
2018-04-17T04:06:53.068Z,16.67
2018-04-17T04:09:20.575Z,25.77
2018-04-17T04:11:48.192Z,12.97
2018-04-17T04:21:50.674Z,19.10
2018-04-17T04:24:30.151Z,23.50
2018-04-17T04:26:57.699Z,15.30
2018-04-17T04:29:25.314Z,12.87
2018-04-17T04:34:49.173Z,21.00
2018-04-17T04:37:26.525Z,16.87
2018-04-17T04:39:54.083Z,15.97
2018-04-17T04:42:21.627Z,15.23
2018-04-17T04:44:49.149Z,11.57
2018-04-17T04:56:03.815Z,17.60
2018-04-17T04:58:31.331Z,13.63
2018-04-17T05:00:58.871Z,19.77
2018-04-17T05:03:26.516Z,11.13
2018-04-17T05:10:34.927Z,20.67
2018-04-17T05:15:50.731Z,15.17
2018-04-17T05:18:21.297Z,14.40
2018-04-17T05:20:48.835Z,17.13
2018-04-17T05:33:53.778Z,15.40
2018-04-17T05:36:21.295Z,20.53
2018-04-17T05:38:48.878Z,18.33
2018-04-17T05:41:42.873Z,11.90
2018-04-17T05:47:32.043Z,16.00
2018-04-17T05:49:59.572Z,12.70
2018-04-17T05:52:27.176Z,16.40
2018-04-17T05:54:54.967Z,18.70
2018-04-17T05:57:22.627Z,16.03
2018-04-17T05:59:51.167Z,17.63
2018-04-17T06:02:27.117Z,11.93
2018-04-17T06:07:44.221Z,19.43
2018-04-17T06:10:11.740Z,13.17
2018-04-17T06:12:39.301Z,10.03
2018-04-17T06:20:17.066Z,16.90
2018-04-17T06:25:25.798Z,24.70
2018-04-17T06:27:53.307Z,15.60
2018-04-17T06:30:20.799Z,15.90
2018-04-17T06:32:51.155Z,21.20
2018-04-17T06:35:25.095Z,17.00
2018-04-17T06:37:52.658Z,20.47
2018-04-17T06:42:53.721Z,15.83
2018-04-17T06:45:21.247Z,15.13
2018-04-17T06:47:48.751Z,15.97
2018-04-17T06:50:16.328Z,21.80
2018-04-17T06:52:47.424Z,17.37
2018-04-17T06:58:44.790Z,13.47
2018-04-17T07:01:12.308Z,18.50
2018-04-17T07:03:39.794Z,19.93
2018-04-17T07:06:07.287Z,18.33
2018-04-17T07:13:47.846Z,12.47
2018-04-17T07:16:15.454Z,22.10
2018-04-17T07:18:42.942Z,17.43
2018-04-17T07:21:10.567Z,16.90
2018-04-17T07:23:38.067Z,17.07
2018-04-17T07:26:07.238Z,16.83
2018-04-17T07:28:34.770Z,17.20
2018-04-17T07:31:06.332Z,10.93
2018-04-17T07:33:33.826Z,14.63
2018-04-17T07:36:01.331Z,14.50
2018-04-17T07:38:28.923Z,21.17
2018-04-17T07:40:56.550Z,16.37
2018-04-17T07:43:43.244Z,21.27
2018-04-17T07:46:20.093Z,14.03
2018-04-17T07:48:54.647Z,14.47
2018-04-17T07:51:22.130Z,14.20
2018-04-17T07:53:49.660Z,19.53
2018-04-17T07:56:17.202Z,20.00
2018-04-17T07:58:45.455Z,17.00
2018-04-17T08:01:13.070Z,18.10
2018-04-17T08:03:43.124Z,14.80
2018-04-17T08:06:12.623Z,16.77
2018-04-17T08:08:40.121Z,16.93
2018-04-17T08:11:07.654Z,16.60
2018-04-17T08:13:35.231Z,18.30
2018-04-17T08:16:02.830Z,16.33
2018-04-17T08:24:27.584Z,19.63
2018-04-17T08:26:55.164Z,19.33
2018-04-17T08:29:22.692Z,23.80
2018-04-17T08:31:50.338Z,16.60
2018-04-17T08:43:02.561Z,14.33
2018-04-17T08:45:30.125Z,9.40
2018-04-17T08:47:58.506Z,13.73
2018-04-17T08:59:32.366Z,15.37
2018-04-17T09:02:00.039Z,18.03
2018-04-17T09:04:27.699Z,14.43
2018-04-17T09:06:56.600Z,17.60
2018-04-17T09:18:33.287Z,19.00
2018-04-17T09:21:02.777Z,18.23
2018-04-17T09:23:30.353Z,15.13
2018-04-17T09:35:18.156Z,13.33
2018-04-17T09:37:46.762Z,15.27
2018-04-17T09:40:14.349Z,15.77
2018-04-17T09:51:51.972Z,11.53
2018-04-17T09:54:19.551Z,14.97
2018-04-17T09:56:47.165Z,4.67
2018-04-17T10:08:23.647Z,10.73
2018-04-17T10:10:51.252Z,8.40
2018-04-17T10:13:18.835Z,8.33
2018-04-17T10:24:56.771Z,9.77
2018-04-17T10:27:24.381Z,11.03
2018-04-17T10:29:52.063Z,10.73
2018-04-17T10:41:46.477Z,8.23
2018-04-17T10:44:14.059Z,12.10
2018-04-17T10:46:41.703Z,8.43
2018-04-17T10:49:12.273Z,9.33
2018-04-17T11:00:49.071Z,8.33
2018-04-17T11:03:16.663Z,8.20
2018-04-17T11:05:44.229Z,11.13
2018-04-17T11:17:20.649Z,8.77
2018-04-17T11:19:48.232Z,5.37
2018-04-17T11:22:15.871Z,9.40
2018-04-17T11:36:40.406Z,14.93
2018-04-17T11:39:15.154Z,10.73
2018-04-17T12:09:21.548Z,16.73
2018-04-17T13:02:14.211Z,14.40
2018-04-17T14:26:37.385Z,10.37
2018-04-17T15:50:28.992Z,7.33
2018-04-17T15:52:58.250Z,7.17
2018-04-17T15:55:28.326Z,8.60
2018-04-17T16:10:27.461Z,11.23
2018-04-17T16:12:55.153Z,13.17
2018-04-17T16:24:30.941Z,11.37
2018-04-17T16:26:58.649Z,9.57
2018-04-17T16:29:26.359Z,8.63
2018-04-17T16:58:55.677Z,11.90
2018-04-17T20:58:03.291Z,42.47
2018-04-17T21:00:30.843Z,36.60
2018-04-17T21:02:59.447Z,41.07
2018-04-17T21:05:32.144Z,42.90
2018-04-17T21:08:12.385Z,39.60
2018-04-17T21:10:41.113Z,45.53
2018-04-17T21:13:08.804Z,36.27
2018-04-17T21:15:36.339Z,31.53
2018-04-17T21:18:04.015Z,33.57
2018-04-17T21:20:31.640Z,41.87
2018-04-17T21:26:01.958Z,34.70
2018-04-17T21:28:31.377Z,42.03
2018-04-17T21:30:58.963Z,36.33
2018-04-17T21:33:26.507Z,36.67
2018-04-17T21:35:54.079Z,40.73
2018-04-17T21:38:21.667Z,39.63
2018-04-17T21:43:28.717Z,34.67
2018-04-17T21:48:30.576Z,43.10
2018-04-17T21:50:58.206Z,45.37
2018-04-17T21:53:25.756Z,44.37
2018-04-17T21:55:53.704Z,40.87
2018-04-17T21:58:23.213Z,41.03
2018-04-17T22:00:53.290Z,37.60
2018-04-17T22:06:33.007Z,43.87
2018-04-17T22:09:00.556Z,43.10
2018-04-17T22:11:28.169Z,43.47
2018-04-17T22:13:59.178Z,36.60
2018-04-17T22:16:31.156Z,43.20
2018-04-17T22:21:36.095Z,35.67
2018-04-17T22:24:03.711Z,40.30
2018-04-17T22:26:32.373Z,41.37
2018-04-17T22:28:59.929Z,40.07
2018-04-17T22:31:36.129Z,40.53
2018-04-17T22:37:17.084Z,39.63
2018-04-17T22:39:44.654Z,32.37
2018-04-17T22:42:12.183Z,45.00
2018-04-17T22:44:39.770Z,39.40
2018-04-17T22:47:07.436Z,33.83
2018-04-17T22:49:39.016Z,29.97
2018-04-17T22:52:11.066Z,30.73
2018-04-17T22:54:43.372Z,34.33
2018-04-17T22:57:11.075Z,33.70
2018-04-17T22:59:38.643Z,32.70
2018-04-17T23:02:06.217Z,42.00
2018-04-17T23:04:33.751Z,30.40
2018-04-17T23:15:47.829Z,16.93
2018-04-17T23:18:15.501Z,16.83
2018-04-17T23:20:43.078Z,17.00
2018-04-17T23:31:12.247Z,12.57
2018-04-17T23:33:39.907Z,14.83
2018-04-17T23:36:07.455Z,14.73
2018-04-17T23:38:35.032Z,14.83
2018-04-17T23:43:56.369Z,11.87
2018-04-17T23:49:12.058Z,15.00
2018-04-17T23:51:39.623Z,15.87
2018-04-17T23:54:07.205Z,12.60
2018-04-17T23:56:35.813Z,10.40
